sensor_id;sensor_type;location;lat;lon;timestamp;P1;durP1;ratioP1;P2;durP2;ratioP2
5752;SDS011;2901;42.140;24.760;2022-11-20T00:01:45;42.75;;;29.17;;
5752;SDS011;2901;42.140;24.760;2022-11-20T00:04:10;41.03;;;29.55;;
5752;SDS011;2901;42.140;24.760;2022-11-20T00:06:36;48.95;;;30.05;;
5752;SDS011;2901;42.140;24.760;2022-11-20T00:09:02;49.58;;;29.55;;
5752;SDS011;2901;42.140;24.760;2022-11-20T00:11:28;41.88;;;30.33;;
5752;SDS011;2901;42.140;24.760;2022-11-20T00:13:55;42.63;;;30.55;;
5752;SDS011;2901;42.140;24.760;2022-11-20T00:16:23;39.75;;;29.33;;
5752;SDS011;2901;42.140;24.760;2022-11-20T00:18:50;49.05;;;31.05;;
5752;SDS011;2901;42.140;24.760;2022-11-20T00:21:24;43.40;;;30.90;;
5752;SDS011;2901;42.140;24.760;2022-11-20T00:23:52;42.15;;;30.85;;
5752;SDS011;2901;42.140;24.760;2022-11-20T00:26:19;38.97;;;29.38;;
5752;SDS011;2901;42.140;24.760;2022-11-20T00:28:55;47.03;;;30.23;;
5752;SDS011;2901;42.140;24.760;2022-11-20T00:31:22;41.47;;;29.10;;
5752;SDS011;2901;42.140;24.760;2022-11-20T00:33:48;45.95;;;30.48;;
5752;SDS011;2901;42.140;24.760;2022-11-20T00:36:16;44.40;;;29.75;;
5752;SDS011;2901;42.140;24.760;2022-11-20T00:38:43;40.20;;;29.60;;
5752;SDS011;2901;42.140;24.760;2022-11-20T00:41:10;48.00;;;31.42;;
5752;SDS011;2901;42.140;24.760;2022-11-20T00:43:38;42.63;;;29.25;;
5752;SDS011;2901;42.140;24.760;2022-11-20T00:46:08;48.17;;;29.60;;
5752;SDS011;2901;42.140;24.760;2022-11-20T00:48:44;46.33;;;31.38;;
5752;SDS011;2901;42.140;24.760;2022-11-20T00:51:13;47.90;;;30.40;;
5752;SDS011;2901;42.140;24.760;2022-11-20T00:53:40;44.55;;;28.27;;
5752;SDS011;2901;42.140;24.760;2022-11-20T00:56:07;42.95;;;29.05;;
5752;SDS011;2901;42.140;24.760;2022-11-20T00:58:36;47.95;;;30.00;;
5752;SDS011;2901;42.140;24.760;2022-11-20T01:03:35;39.65;;;28.17;;
5752;SDS011;2901;42.140;24.760;2022-11-20T01:06:02;42.63;;;28.70;;
5752;SDS011;2901;42.140;24.760;2022-11-20T01:08:30;42.17;;;28.67;;
5752;SDS011;2901;42.140;24.760;2022-11-20T01:11:00;42.22;;;27.13;;
5752;SDS011;2901;42.140;24.760;2022-11-20T01:13:46;42.88;;;28.25;;
5752;SDS011;2901;42.140;24.760;2022-11-20T01:18:44;41.60;;;28.75;;
5752;SDS011;2901;42.140;24.760;2022-11-20T01:21:12;42.20;;;28.92;;
5752;SDS011;2901;42.140;24.760;2022-11-20T01:23:40;38.90;;;28.13;;
5752;SDS011;2901;42.140;24.760;2022-11-20T01:26:07;39.90;;;30.05;;
5752;SDS011;2901;42.140;24.760;2022-11-20T01:28:37;43.10;;;29.85;;
5752;SDS011;2901;42.140;24.760;2022-11-20T01:33:41;40.40;;;29.33;;
5752;SDS011;2901;42.140;24.760;2022-11-20T01:36:08;40.92;;;29.25;;
5752;SDS011;2901;42.140;24.760;2022-11-20T01:38:34;45.15;;;29.85;;
5752;SDS011;2901;42.140;24.760;2022-11-20T01:40:59;43.17;;;30.10;;
5752;SDS011;2901;42.140;24.760;2022-11-20T01:43:25;42.15;;;28.83;;
5752;SDS011;2901;42.140;24.760;2022-11-20T01:48:42;44.90;;;30.63;;
5752;SDS011;2901;42.140;24.760;2022-11-20T01:51:33;44.60;;;29.50;;
5752;SDS011;2901;42.140;24.760;2022-11-20T01:54:08;37.20;;;29.17;;
5752;SDS011;2901;42.140;24.760;2022-11-20T01:56:40;45.60;;;28.85;;
5752;SDS011;2901;42.140;24.760;2022-11-20T01:59:08;38.88;;;27.58;;
5752;SDS011;2901;42.140;24.760;2022-11-20T02:01:38;40.03;;;28.83;;
5752;SDS011;2901;42.140;24.760;2022-11-20T02:04:04;43.28;;;28.77;;
5752;SDS011;2901;42.140;24.760;2022-11-20T02:06:35;41.33;;;28.23;;
5752;SDS011;2901;42.140;24.760;2022-11-20T02:09:07;41.70;;;28.98;;
5752;SDS011;2901;42.140;24.760;2022-11-20T02:11:32;42.28;;;28.95;;
5752;SDS011;2901;42.140;24.760;2022-11-20T02:13:58;45.65;;;29.55;;
5752;SDS011;2901;42.140;24.760;2022-11-20T02:18:54;44.92;;;27.92;;
5752;SDS011;2901;42.140;24.760;2022-11-20T02:21:27;43.92;;;28.80;;
5752;SDS011;2901;42.140;24.760;2022-11-20T02:24:12;36.80;;;27.00;;
5752;SDS011;2901;42.140;24.760;2022-11-20T02:29:16;42.80;;;27.55;;
5752;SDS011;2901;42.140;24.760;2022-11-20T02:31:44;42.30;;;27.52;;
5752;SDS011;2901;42.140;24.760;2022-11-20T02:34:10;36.45;;;27.20;;
5752;SDS011;2901;42.140;24.760;2022-11-20T02:36:35;40.28;;;27.83;;
5752;SDS011;2901;42.140;24.760;2022-11-20T02:39:04;46.20;;;27.50;;
5752;SDS011;2901;42.140;24.760;2022-11-20T02:41:30;39.53;;;27.98;;
5752;SDS011;2901;42.140;24.760;2022-11-20T02:44:02;44.67;;;28.30;;
5752;SDS011;2901;42.140;24.760;2022-11-20T02:46:28;38.05;;;24.95;;
5752;SDS011;2901;42.140;24.760;2022-11-20T02:48:55;44.00;;;27.75;;
5752;SDS011;2901;42.140;24.760;2022-11-20T02:51:20;41.15;;;28.65;;
5752;SDS011;2901;42.140;24.760;2022-11-20T02:53:46;38.58;;;26.80;;
5752;SDS011;2901;42.140;24.760;2022-11-20T02:56:11;40.15;;;26.45;;
5752;SDS011;2901;42.140;24.760;2022-11-20T02:58:36;33.22;;;24.40;;
5752;SDS011;2901;42.140;24.760;2022-11-20T03:01:02;37.55;;;24.23;;
5752;SDS011;2901;42.140;24.760;2022-11-20T03:03:27;35.45;;;25.00;;
5752;SDS011;2901;42.140;24.760;2022-11-20T03:05:52;32.75;;;22.60;;
5752;SDS011;2901;42.140;24.760;2022-11-20T03:08:18;36.60;;;25.05;;
5752;SDS011;2901;42.140;24.760;2022-11-20T03:10:43;43.22;;;24.88;;
5752;SDS011;2901;42.140;24.760;2022-11-20T03:13:08;32.13;;;22.88;;
5752;SDS011;2901;42.140;24.760;2022-11-20T03:15:35;33.38;;;23.77;;
5752;SDS011;2901;42.140;24.760;2022-11-20T03:18:02;32.20;;;23.67;;
5752;SDS011;2901;42.140;24.760;2022-11-20T03:20:27;32.33;;;24.35;;
5752;SDS011;2901;42.140;24.760;2022-11-20T03:22:53;34.33;;;24.55;;
5752;SDS011;2901;42.140;24.760;2022-11-20T03:25:20;37.85;;;23.58;;
5752;SDS011;2901;42.140;24.760;2022-11-20T03:27:45;39.25;;;24.83;;
5752;SDS011;2901;42.140;24.760;2022-11-20T03:30:11;35.25;;;23.40;;
5752;SDS011;2901;42.140;24.760;2022-11-20T03:32:36;41.70;;;23.58;;
5752;SDS011;2901;42.140;24.760;2022-11-20T03:35:02;33.53;;;24.38;;
5752;SDS011;2901;42.140;24.760;2022-11-20T03:37:27;29.80;;;23.92;;
5752;SDS011;2901;42.140;24.760;2022-11-20T03:39:53;37.08;;;23.98;;
5752;SDS011;2901;42.140;24.760;2022-11-20T03:42:18;32.95;;;21.88;;
5752;SDS011;2901;42.140;24.760;2022-11-20T03:45:02;32.92;;;22.45;;
5752;SDS011;2901;42.140;24.760;2022-11-20T03:47:28;30.55;;;21.23;;
5752;SDS011;2901;42.140;24.760;2022-11-20T03:49:53;25.33;;;18.85;;
5752;SDS011;2901;42.140;24.760;2022-11-20T03:52:18;26.63;;;18.83;;
5752;SDS011;2901;42.140;24.760;2022-11-20T03:54:44;29.10;;;16.45;;
5752;SDS011;2901;42.140;24.760;2022-11-20T03:57:09;26.20;;;16.80;;
5752;SDS011;2901;42.140;24.760;2022-11-20T03:59:35;24.90;;;16.50;;
5752;SDS011;2901;42.140;24.760;2022-11-20T04:02:00;22.55;;;15.52;;
5752;SDS011;2901;42.140;24.760;2022-11-20T04:04:25;20.67;;;15.88;;
5752;SDS011;2901;42.140;24.760;2022-11-20T04:06:51;28.17;;;15.95;;
5752;SDS011;2901;42.140;24.760;2022-11-20T04:09:16;21.05;;;14.95;;
5752;SDS011;2901;42.140;24.760;2022-11-20T04:11:41;24.30;;;14.05;;
5752;SDS011;2901;42.140;24.760;2022-11-20T04:14:11;16.33;;;12.40;;
5752;SDS011;2901;42.140;24.760;2022-11-20T04:16:38;19.67;;;12.85;;
5752;SDS011;2901;42.140;24.760;2022-11-20T04:19:05;14.23;;;11.77;;
5752;SDS011;2901;42.140;24.760;2022-11-20T04:21:34;12.52;;;9.82;;
5752;SDS011;2901;42.140;24.760;2022-11-20T04:23:59;18.15;;;11.35;;
5752;SDS011;2901;42.140;24.760;2022-11-20T04:26:25;15.20;;;11.27;;
5752;SDS011;2901;42.140;24.760;2022-11-20T04:28:53;14.50;;;11.00;;
5752;SDS011;2901;42.140;24.760;2022-11-20T04:31:20;16.90;;;11.32;;
5752;SDS011;2901;42.140;24.760;2022-11-20T04:33:47;16.55;;;11.27;;
5752;SDS011;2901;42.140;24.760;2022-11-20T04:36:18;18.35;;;10.15;;
5752;SDS011;2901;42.140;24.760;2022-11-20T04:38:46;21.60;;;9.70;;
5752;SDS011;2901;42.140;24.760;2022-11-20T04:41:16;20.02;;;9.35;;
5752;SDS011;2901;42.140;24.760;2022-11-20T04:43:47;19.38;;;9.18;;
5752;SDS011;2901;42.140;24.760;2022-11-20T04:46:16;16.23;;;8.75;;
5752;SDS011;2901;42.140;24.760;2022-11-20T04:48:43;20.13;;;9.52;;
5752;SDS011;2901;42.140;24.760;2022-11-20T04:51:08;17.17;;;7.60;;
5752;SDS011;2901;42.140;24.760;2022-11-20T04:53:34;15.50;;;8.07;;
5752;SDS011;2901;42.140;24.760;2022-11-20T04:56:06;23.33;;;8.48;;
5752;SDS011;2901;42.140;24.760;2022-11-20T04:58:33;14.27;;;7.50;;
5752;SDS011;2901;42.140;24.760;2022-11-20T05:01:02;12.95;;;7.90;;
5752;SDS011;2901;42.140;24.760;2022-11-20T05:03:29;15.68;;;6.72;;
5752;SDS011;2901;42.140;24.760;2022-11-20T05:05:55;12.00;;;6.70;;
5752;SDS011;2901;42.140;24.760;2022-11-20T05:08:20;7.28;;;6.57;;
5752;SDS011;2901;42.140;24.760;2022-11-20T05:10:45;11.35;;;5.93;;
5752;SDS011;2901;42.140;24.760;2022-11-20T05:13:11;12.10;;;6.88;;
5752;SDS011;2901;42.140;24.760;2022-11-20T05:15:36;11.95;;;7.43;;
5752;SDS011;2901;42.140;24.760;2022-11-20T05:18:02;14.05;;;7.88;;
5752;SDS011;2901;42.140;24.760;2022-11-20T05:20:27;14.15;;;7.38;;
5752;SDS011;2901;42.140;24.760;2022-11-20T05:22:55;12.70;;;8.65;;
5752;SDS011;2901;42.140;24.760;2022-11-20T05:25:21;26.30;;;8.55;;
5752;SDS011;2901;42.140;24.760;2022-11-20T05:27:47;28.88;;;6.82;;
5752;SDS011;2901;42.140;24.760;2022-11-20T05:30:12;10.13;;;7.38;;
5752;SDS011;2901;42.140;24.760;2022-11-20T05:32:38;19.20;;;8.63;;
5752;SDS011;2901;42.140;24.760;2022-11-20T05:35:03;15.80;;;7.95;;
5752;SDS011;2901;42.140;24.760;2022-11-20T05:37:29;20.35;;;8.25;;
5752;SDS011;2901;42.140;24.760;2022-11-20T05:39:54;21.30;;;7.10;;
5752;SDS011;2901;42.140;24.760;2022-11-20T05:42:20;14.38;;;8.85;;
5752;SDS011;2901;42.140;24.760;2022-11-20T05:44:58;21.92;;;8.05;;
5752;SDS011;2901;42.140;24.760;2022-11-20T05:47:27;12.98;;;7.72;;
5752;SDS011;2901;42.140;24.760;2022-11-20T05:49:56;14.70;;;7.93;;
5752;SDS011;2901;42.140;24.760;2022-11-20T05:52:21;14.32;;;7.05;;
5752;SDS011;2901;42.140;24.760;2022-11-20T05:54:47;13.95;;;7.47;;
5752;SDS011;2901;42.140;24.760;2022-11-20T05:57:12;15.40;;;8.52;;
5752;SDS011;2901;42.140;24.760;2022-11-20T05:59:37;10.93;;;8.15;;
5752;SDS011;2901;42.140;24.760;2022-11-20T06:02:03;17.90;;;8.80;;
5752;SDS011;2901;42.140;24.760;2022-11-20T06:04:28;15.10;;;8.98;;
5752;SDS011;2901;42.140;24.760;2022-11-20T06:06:54;15.02;;;8.95;;
5752;SDS011;2901;42.140;24.760;2022-11-20T06:09:19;14.18;;;10.02;;
5752;SDS011;2901;42.140;24.760;2022-11-20T06:11:44;15.75;;;8.70;;
5752;SDS011;2901;42.140;24.760;2022-11-20T06:14:10;14.43;;;9.75;;
5752;SDS011;2901;42.140;24.760;2022-11-20T06:16:35;17.70;;;9.27;;
5752;SDS011;2901;42.140;24.760;2022-11-20T06:19:01;11.85;;;7.85;;
5752;SDS011;2901;42.140;24.760;2022-11-20T06:21:26;12.32;;;6.18;;
5752;SDS011;2901;42.140;24.760;2022-11-20T06:23:52;9.13;;;7.30;;
5752;SDS011;2901;42.140;24.760;2022-11-20T06:26:19;11.73;;;7.95;;
5752;SDS011;2901;42.140;24.760;2022-11-20T06:28:49;9.98;;;7.32;;
5752;SDS011;2901;42.140;24.760;2022-11-20T06:31:16;10.65;;;7.63;;
5752;SDS011;2901;42.140;24.760;2022-11-20T06:33:43;13.20;;;7.13;;
5752;SDS011;2901;42.140;24.760;2022-11-20T06:36:09;17.33;;;7.85;;
5752;SDS011;2901;42.140;24.760;2022-11-20T06:38:36;9.45;;;6.88;;
5752;SDS011;2901;42.140;24.760;2022-11-20T06:41:03;10.20;;;7.15;;
5752;SDS011;2901;42.140;24.760;2022-11-20T06:43:30;7.80;;;7.13;;
5752;SDS011;2901;42.140;24.760;2022-11-20T06:45:56;7.70;;;6.10;;
5752;SDS011;2901;42.140;24.760;2022-11-20T06:48:22;10.93;;;7.50;;
5752;SDS011;2901;42.140;24.760;2022-11-20T06:50:48;8.68;;;7.03;;
5752;SDS011;2901;42.140;24.760;2022-11-20T06:53:14;11.50;;;7.50;;
5752;SDS011;2901;42.140;24.760;2022-11-20T06:55:43;16.23;;;9.02;;
5752;SDS011;2901;42.140;24.760;2022-11-20T06:58:10;17.10;;;9.10;;
5752;SDS011;2901;42.140;24.760;2022-11-20T07:00:36;12.10;;;9.00;;
5752;SDS011;2901;42.140;24.760;2022-11-20T07:03:05;12.18;;;8.77;;
5752;SDS011;2901;42.140;24.760;2022-11-20T07:05:31;16.90;;;7.90;;
5752;SDS011;2901;42.140;24.760;2022-11-20T07:07:57;13.18;;;7.45;;
5752;SDS011;2901;42.140;24.760;2022-11-20T07:10:23;14.65;;;9.02;;
5752;SDS011;2901;42.140;24.760;2022-11-20T07:12:49;14.77;;;8.77;;
5752;SDS011;2901;42.140;24.760;2022-11-20T07:15:16;11.93;;;8.10;;
5752;SDS011;2901;42.140;24.760;2022-11-20T07:17:42;13.98;;;9.35;;
5752;SDS011;2901;42.140;24.760;2022-11-20T07:20:07;17.90;;;10.35;;
5752;SDS011;2901;42.140;24.760;2022-11-20T07:22:33;13.60;;;9.88;;
5752;SDS011;2901;42.140;24.760;2022-11-20T07:24:58;8.13;;;6.97;;
5752;SDS011;2901;42.140;24.760;2022-11-20T07:27:23;14.25;;;7.38;;
5752;SDS011;2901;42.140;24.760;2022-11-20T07:29:49;14.50;;;8.25;;
5752;SDS011;2901;42.140;24.760;2022-11-20T07:32:14;10.60;;;6.00;;
5752;SDS011;2901;42.140;24.760;2022-11-20T07:34:40;8.48;;;6.20;;
5752;SDS011;2901;42.140;24.760;2022-11-20T07:37:05;13.23;;;6.80;;
5752;SDS011;2901;42.140;24.760;2022-11-20T07:39:30;10.57;;;6.80;;
5752;SDS011;2901;42.140;24.760;2022-11-20T07:41:56;12.02;;;6.72;;
5752;SDS011;2901;42.140;24.760;2022-11-20T07:44:21;11.25;;;6.75;;
5752;SDS011;2901;42.140;24.760;2022-11-20T07:46:46;12.02;;;6.88;;
5752;SDS011;2901;42.140;24.760;2022-11-20T07:49:12;8.23;;;7.47;;
5752;SDS011;2901;42.140;24.760;2022-11-20T07:51:37;18.23;;;8.25;;
5752;SDS011;2901;42.140;24.760;2022-11-20T07:54:03;11.60;;;8.10;;
5752;SDS011;2901;42.140;24.760;2022-11-20T07:56:28;12.98;;;8.63;;
5752;SDS011;2901;42.140;24.760;2022-11-20T07:58:54;20.00;;;10.27;;
5752;SDS011;2901;42.140;24.760;2022-11-20T08:01:19;12.20;;;8.30;;
5752;SDS011;2901;42.140;24.760;2022-11-20T08:03:44;19.55;;;10.13;;
5752;SDS011;2901;42.140;24.760;2022-11-20T08:06:10;12.50;;;8.68;;
5752;SDS011;2901;42.140;24.760;2022-11-20T08:08:35;19.00;;;8.95;;
5752;SDS011;2901;42.140;24.760;2022-11-20T08:11:00;14.63;;;9.07;;
5752;SDS011;2901;42.140;24.760;2022-11-20T08:13:44;14.35;;;9.48;;
5752;SDS011;2901;42.140;24.760;2022-11-20T08:16:28;21.02;;;9.73;;
5752;SDS011;2901;42.140;24.760;2022-11-20T08:18:54;15.82;;;8.65;;
5752;SDS011;2901;42.140;24.760;2022-11-20T08:21:20;12.10;;;8.68;;
5752;SDS011;2901;42.140;24.760;2022-11-20T08:23:45;11.43;;;7.22;;
5752;SDS011;2901;42.140;24.760;2022-11-20T08:26:11;16.95;;;7.35;;
5752;SDS011;2901;42.140;24.760;2022-11-20T08:28:36;11.65;;;8.02;;
5752;SDS011;2901;42.140;24.760;2022-11-20T08:31:02;10.13;;;7.65;;
5752;SDS011;2901;42.140;24.760;2022-11-20T08:33:28;8.00;;;6.53;;
5752;SDS011;2901;42.140;24.760;2022-11-20T08:35:58;9.57;;;6.00;;
5752;SDS011;2901;42.140;24.760;2022-11-20T08:38:24;15.45;;;6.68;;
5752;SDS011;2901;42.140;24.760;2022-11-20T08:40:50;9.88;;;6.80;;
5752;SDS011;2901;42.140;24.760;2022-11-20T08:43:33;15.95;;;7.40;;
5752;SDS011;2901;42.140;24.760;2022-11-20T08:45:59;9.40;;;5.57;;
5752;SDS011;2901;42.140;24.760;2022-11-20T08:48:24;13.43;;;5.90;;
5752;SDS011;2901;42.140;24.760;2022-11-20T08:50:49;12.48;;;6.55;;
5752;SDS011;2901;42.140;24.760;2022-11-20T08:53:15;6.40;;;5.78;;
5752;SDS011;2901;42.140;24.760;2022-11-20T08:55:40;8.13;;;6.07;;
5752;SDS011;2901;42.140;24.760;2022-11-20T08:58:06;9.13;;;6.50;;
5752;SDS011;2901;42.140;24.760;2022-11-20T09:00:32;20.58;;;6.78;;
5752;SDS011;2901;42.140;24.760;2022-11-20T09:02:58;10.00;;;5.20;;
5752;SDS011;2901;42.140;24.760;2022-11-20T09:05:25;9.32;;;4.72;;
5752;SDS011;2901;42.140;24.760;2022-11-20T09:07:51;9.43;;;4.95;;
5752;SDS011;2901;42.140;24.760;2022-11-20T09:10:16;16.55;;;7.80;;
5752;SDS011;2901;42.140;24.760;2022-11-20T09:12:41;11.45;;;7.57;;
5752;SDS011;2901;42.140;24.760;2022-11-20T09:15:07;18.20;;;11.48;;
5752;SDS011;2901;42.140;24.760;2022-11-20T09:17:33;18.67;;;10.45;;
5752;SDS011;2901;42.140;24.760;2022-11-20T09:19:58;14.43;;;10.35;;
5752;SDS011;2901;42.140;24.760;2022-11-20T09:22:23;10.10;;;8.05;;
5752;SDS011;2901;42.140;24.760;2022-11-20T09:24:49;19.33;;;8.35;;
5752;SDS011;2901;42.140;24.760;2022-11-20T09:27:14;14.35;;;7.72;;
5752;SDS011;2901;42.140;24.760;2022-11-20T09:29:39;13.32;;;9.88;;
5752;SDS011;2901;42.140;24.760;2022-11-20T09:32:05;9.68;;;5.70;;
5752;SDS011;2901;42.140;24.760;2022-11-20T09:34:31;14.52;;;7.60;;
5752;SDS011;2901;42.140;24.760;2022-11-20T09:36:56;16.42;;;8.48;;
5752;SDS011;2901;42.140;24.760;2022-11-20T09:39:21;14.52;;;6.78;;
5752;SDS011;2901;42.140;24.760;2022-11-20T09:47:05;12.30;;;5.75;;
5752;SDS011;2901;42.140;24.760;2022-11-20T09:55:38;14.23;;;4.93;;
5752;SDS011;2901;42.140;24.760;2022-11-20T09:58:07;4.95;;;3.45;;
5752;SDS011;2901;42.140;24.760;2022-11-20T10:00:41;6.43;;;3.40;;
5752;SDS011;2901;42.140;24.760;2022-11-20T10:03:21;9.88;;;3.80;;
5752;SDS011;2901;42.140;24.760;2022-11-20T10:06:00;8.73;;;3.38;;
5752;SDS011;2901;42.140;24.760;2022-11-20T10:13:50;9.10;;;3.70;;
5752;SDS011;2901;42.140;24.760;2022-11-20T10:25:13;15.52;;;4.68;;
5752;SDS011;2901;42.140;24.760;2022-11-20T10:30:43;6.82;;;3.72;;
5752;SDS011;2901;42.140;24.760;2022-11-20T10:33:17;7.18;;;3.88;;
5752;SDS011;2901;42.140;24.760;2022-11-20T10:35:50;15.32;;;4.47;;
5752;SDS011;2901;42.140;24.760;2022-11-20T10:38:37;9.18;;;4.88;;
5752;SDS011;2901;42.140;24.760;2022-11-20T10:41:12;10.18;;;4.50;;
5752;SDS011;2901;42.140;24.760;2022-11-20T10:43:58;13.52;;;6.78;;
5752;SDS011;2901;42.140;24.760;2022-11-20T10:46:30;13.18;;;5.68;;
5752;SDS011;2901;42.140;24.760;2022-11-20T10:49:02;12.70;;;5.88;;
5752;SDS011;2901;42.140;24.760;2022-11-20T10:51:48;11.25;;;7.32;;
5752;SDS011;2901;42.140;24.760;2022-11-20T10:54:39;8.40;;;6.45;;
5752;SDS011;2901;42.140;24.760;2022-11-20T10:57:20;12.10;;;5.45;;
5752;SDS011;2901;42.140;24.760;2022-11-20T11:00:10;16.90;;;6.35;;
5752;SDS011;2901;42.140;24.760;2022-11-20T11:02:44;17.20;;;6.78;;
5752;SDS011;2901;42.140;24.760;2022-11-20T11:07:57;19.23;;;6.88;;
5752;SDS011;2901;42.140;24.760;2022-11-20T11:12:57;9.52;;;6.07;;
5752;SDS011;2901;42.140;24.760;2022-11-20T11:17:53;13.82;;;6.07;;
5752;SDS011;2901;42.140;24.760;2022-11-20T11:20:20;18.65;;;6.88;;
5752;SDS011;2901;42.140;24.760;2022-11-20T11:22:53;12.23;;;6.07;;
5752;SDS011;2901;42.140;24.760;2022-11-20T11:27:59;17.23;;;6.35;;
5752;SDS011;2901;42.140;24.760;2022-11-20T11:30:30;14.27;;;5.25;;
5752;SDS011;2901;42.140;24.760;2022-11-20T11:33:08;9.40;;;5.97;;
5752;SDS011;2901;42.140;24.760;2022-11-20T11:35:39;10.68;;;6.22;;
5752;SDS011;2901;42.140;24.760;2022-11-20T11:38:14;20.15;;;7.30;;
5752;SDS011;2901;42.140;24.760;2022-11-20T11:40:42;12.75;;;6.85;;
5752;SDS011;2901;42.140;24.760;2022-11-20T11:51:49;8.50;;;5.28;;
5752;SDS011;2901;42.140;24.760;2022-11-20T11:54:23;10.55;;;4.78;;
5752;SDS011;2901;42.140;24.760;2022-11-20T11:56:51;13.90;;;4.88;;
5752;SDS011;2901;42.140;24.760;2022-11-20T11:59:22;10.98;;;5.60;;
5752;SDS011;2901;42.140;24.760;2022-11-20T12:01:57;14.05;;;5.30;;
5752;SDS011;2901;42.140;24.760;2022-11-20T12:07:45;20.38;;;4.90;;
5752;SDS011;2901;42.140;24.760;2022-11-20T12:10:17;16.83;;;6.95;;
5752;SDS011;2901;42.140;24.760;2022-11-20T12:16:02;9.50;;;4.35;;
5752;SDS011;2901;42.140;24.760;2022-11-20T12:18:29;14.60;;;5.05;;
5752;SDS011;2901;42.140;24.760;2022-11-20T12:41:23;12.63;;;6.55;;
5752;SDS011;2901;42.140;24.760;2022-11-20T12:44:16;13.27;;;4.32;;
5752;SDS011;2901;42.140;24.760;2022-11-20T12:53:22;10.20;;;3.92;;
5752;SDS011;2901;42.140;24.760;2022-11-20T12:59:10;16.15;;;5.93;;
5752;SDS011;2901;42.140;24.760;2022-11-20T13:04:39;11.82;;;4.53;;
5752;SDS011;2901;42.140;24.760;2022-11-20T13:07:16;11.15;;;6.90;;
5752;SDS011;2901;42.140;24.760;2022-11-20T13:09:46;21.58;;;6.82;;
5752;SDS011;2901;42.140;24.760;2022-11-20T13:12:15;15.18;;;5.07;;
5752;SDS011;2901;42.140;24.760;2022-11-20T13:17:32;20.13;;;5.45;;
5752;SDS011;2901;42.140;24.760;2022-11-20T13:20:05;16.42;;;4.35;;
5752;SDS011;2901;42.140;24.760;2022-11-20T13:22:44;10.85;;;3.97;;
5752;SDS011;2901;42.140;24.760;2022-11-20T13:27:52;13.15;;;5.13;;
5752;SDS011;2901;42.140;24.760;2022-11-20T13:30:19;19.00;;;4.30;;
5752;SDS011;2901;42.140;24.760;2022-11-20T13:32:51;9.20;;;4.47;;
5752;SDS011;2901;42.140;24.760;2022-11-20T13:38:09;5.88;;;4.00;;
5752;SDS011;2901;42.140;24.760;2022-11-20T13:43:42;9.85;;;3.38;;
5752;SDS011;2901;42.140;24.760;2022-11-20T13:46:09;13.43;;;3.90;;
5752;SDS011;2901;42.140;24.760;2022-11-20T13:48:39;12.35;;;3.67;;
5752;SDS011;2901;42.140;24.760;2022-11-20T13:53:44;14.35;;;2.97;;
5752;SDS011;2901;42.140;24.760;2022-11-20T13:56:54;14.10;;;2.92;;
5752;SDS011;2901;42.140;24.760;2022-11-20T14:01:54;12.85;;;2.78;;
5752;SDS011;2901;42.140;24.760;2022-11-20T14:04:25;4.03;;;1.67;;
5752;SDS011;2901;42.140;24.760;2022-11-20T14:06:55;7.18;;;1.52;;
5752;SDS011;2901;42.140;24.760;2022-11-20T14:09:31;10.43;;;1.50;;
5752;SDS011;2901;42.140;24.760;2022-11-20T14:11:59;1.30;;;1.20;;
5752;SDS011;2901;42.140;24.760;2022-11-20T14:14:25;3.78;;;0.85;;
5752;SDS011;2901;42.140;24.760;2022-11-20T14:16:52;5.47;;;0.98;;
5752;SDS011;2901;42.140;24.760;2022-11-20T14:19:29;0.77;;;0.60;;
5752;SDS011;2901;42.140;24.760;2022-11-20T14:27:42;3.17;;;0.80;;
5752;SDS011;2901;42.140;24.760;2022-11-20T14:30:13;4.93;;;0.73;;
5752;SDS011;2901;42.140;24.760;2022-11-20T14:32:40;0.70;;;0.68;;
5752;SDS011;2901;42.140;24.760;2022-11-20T14:35:08;0.65;;;0.50;;
5752;SDS011;2901;42.140;24.760;2022-11-20T14:37:38;1.75;;;0.70;;
5752;SDS011;2901;42.140;24.760;2022-11-20T14:40:21;3.40;;;0.55;;
5752;SDS011;2901;42.140;24.760;2022-11-20T14:42:49;2.67;;;0.90;;
5752;SDS011;2901;42.140;24.760;2022-11-20T14:45:14;1.42;;;0.70;;
5752;SDS011;2901;42.140;24.760;2022-11-20T14:47:40;2.60;;;0.95;;
5752;SDS011;2901;42.140;24.760;2022-11-20T14:50:08;0.65;;;0.60;;
5752;SDS011;2901;42.140;24.760;2022-11-20T14:52:49;0.60;;;0.50;;
5752;SDS011;2901;42.140;24.760;2022-11-20T14:55:31;1.75;;;0.80;;
5752;SDS011;2901;42.140;24.760;2022-11-20T14:58:00;2.33;;;1.27;;
5752;SDS011;2901;42.140;24.760;2022-11-20T15:00:53;1.13;;;0.82;;
5752;SDS011;2901;42.140;24.760;2022-11-20T15:03:39;1.40;;;0.93;;
5752;SDS011;2901;42.140;24.760;2022-11-20T15:06:06;1.35;;;1.00;;
5752;SDS011;2901;42.140;24.760;2022-11-20T15:08:33;2.75;;;2.03;;
5752;SDS011;2901;42.140;24.760;2022-11-20T15:10:59;3.83;;;1.65;;
5752;SDS011;2901;42.140;24.760;2022-11-20T15:13:29;2.88;;;1.48;;
5752;SDS011;2901;42.140;24.760;2022-11-20T15:15:57;2.35;;;1.65;;
5752;SDS011;2901;42.140;24.760;2022-11-20T15:20:54;9.98;;;2.53;;
5752;SDS011;2901;42.140;24.760;2022-11-20T15:23:21;4.10;;;2.90;;
5752;SDS011;2901;42.140;24.760;2022-11-20T15:25:47;3.90;;;2.85;;
5752;SDS011;2901;42.140;24.760;2022-11-20T15:28:16;9.88;;;2.78;;
5752;SDS011;2901;42.140;24.760;2022-11-20T15:30:44;2.92;;;2.72;;
5752;SDS011;2901;42.140;24.760;2022-11-20T15:33:10;14.55;;;7.18;;
5752;SDS011;2901;42.140;24.760;2022-11-20T15:35:36;15.43;;;8.88;;
5752;SDS011;2901;42.140;24.760;2022-11-20T15:38:02;6.15;;;4.60;;
5752;SDS011;2901;42.140;24.760;2022-11-20T15:40:27;7.45;;;3.35;;
5752;SDS011;2901;42.140;24.760;2022-11-20T15:42:52;15.55;;;4.07;;
5752;SDS011;2901;42.140;24.760;2022-11-20T15:45:39;7.25;;;2.92;;
5752;SDS011;2901;42.140;24.760;2022-11-20T15:48:14;3.72;;;3.40;;
5752;SDS011;2901;42.140;24.760;2022-11-20T15:50:46;6.25;;;3.65;;
5752;SDS011;2901;42.140;24.760;2022-11-20T15:53:19;7.10;;;3.92;;
5752;SDS011;2901;42.140;24.760;2022-11-20T15:55:44;5.20;;;4.68;;
5752;SDS011;2901;42.140;24.760;2022-11-20T15:58:09;5.35;;;3.28;;
5752;SDS011;2901;42.140;24.760;2022-11-20T16:00:35;12.70;;;3.40;;
5752;SDS011;2901;42.140;24.760;2022-11-20T16:03:00;3.97;;;2.35;;
5752;SDS011;2901;42.140;24.760;2022-11-20T16:05:29;2.45;;;1.52;;
5752;SDS011;2901;42.140;24.760;2022-11-20T16:07:55;2.15;;;1.70;;
5752;SDS011;2901;42.140;24.760;2022-11-20T16:10:20;3.28;;;2.47;;
5752;SDS011;2901;42.140;24.760;2022-11-20T16:12:46;5.85;;;3.03;;
5752;SDS011;2901;42.140;24.760;2022-11-20T16:15:30;7.20;;;1.90;;
5752;SDS011;2901;42.140;24.760;2022-11-20T16:18:12;3.55;;;1.77;;
5752;SDS011;2901;42.140;24.760;2022-11-20T16:20:42;5.47;;;2.45;;
5752;SDS011;2901;42.140;24.760;2022-11-20T16:23:08;6.30;;;3.58;;
5752;SDS011;2901;42.140;24.760;2022-11-20T16:25:33;6.30;;;4.72;;
5752;SDS011;2901;42.140;24.760;2022-11-20T16:27:59;16.35;;;5.30;;
5752;SDS011;2901;42.140;24.760;2022-11-20T16:30:24;10.95;;;6.82;;
5752;SDS011;2901;42.140;24.760;2022-11-20T16:32:50;12.45;;;6.25;;
5752;SDS011;2901;42.140;24.760;2022-11-20T16:35:15;7.45;;;6.13;;
5752;SDS011;2901;42.140;24.760;2022-11-20T16:37:41;9.68;;;4.68;;
5752;SDS011;2901;42.140;24.760;2022-11-20T16:40:08;7.22;;;4.60;;
5752;SDS011;2901;42.140;24.760;2022-11-20T16:42:34;15.02;;;5.40;;
5752;SDS011;2901;42.140;24.760;2022-11-20T16:45:00;9.20;;;5.25;;
5752;SDS011;2901;42.140;24.760;2022-11-20T16:47:26;7.53;;;5.40;;
5752;SDS011;2901;42.140;24.760;2022-11-20T16:49:52;6.78;;;5.47;;
5752;SDS011;2901;42.140;24.760;2022-11-20T16:52:17;9.65;;;5.50;;
5752;SDS011;2901;42.140;24.760;2022-11-20T16:54:42;12.98;;;5.40;;
5752;SDS011;2901;42.140;24.760;2022-11-20T16:57:08;11.15;;;5.68;;
5752;SDS011;2901;42.140;24.760;2022-11-20T16:59:33;9.65;;;3.92;;
5752;SDS011;2901;42.140;24.760;2022-11-20T17:01:59;10.50;;;3.30;;
5752;SDS011;2901;42.140;24.760;2022-11-20T17:04:24;14.57;;;4.25;;